sensor_id;sensor_type;location;lat;lon;timestamp;P1;durP1;ratioP1;P2;durP2;ratioP2
23250;SDS011;11794;49.730;10.088;2022-08-19T00:01:32;16.83;;;7.13;;
23250;SDS011;11794;49.730;10.088;2022-08-19T00:04:00;17.07;;;7.23;;
23250;SDS011;11794;49.730;10.088;2022-08-19T00:06:28;15.68;;;7.53;;
23250;SDS011;11794;49.730;10.088;2022-08-19T00:08:55;17.20;;;7.57;;
23250;SDS011;11794;49.730;10.088;2022-08-19T00:11:21;17.02;;;7.18;;
23250;SDS011;11794;49.730;10.088;2022-08-19T00:13:47;17.63;;;7.10;;
23250;SDS011;11794;49.730;10.088;2022-08-19T00:16:15;18.37;;;7.23;;
23250;SDS011;11794;49.730;10.088;2022-08-19T00:18:43;19.02;;;7.75;;
23250;SDS011;11794;49.730;10.088;2022-08-19T00:21:09;19.02;;;7.45;;
23250;SDS011;11794;49.730;10.088;2022-08-19T00:23:34;18.87;;;7.50;;
23250;SDS011;11794;49.730;10.088;2022-08-19T00:26:01;17.08;;;7.22;;
23250;SDS011;11794;49.730;10.088;2022-08-19T00:28:28;15.63;;;6.90;;
23250;SDS011;11794;49.730;10.088;2022-08-19T00:30:55;16.38;;;6.65;;
23250;SDS011;11794;49.730;10.088;2022-08-19T00:33:20;19.88;;;7.05;;
23250;SDS011;11794;49.730;10.088;2022-08-19T00:35:46;16.63;;;7.00;;
23250;SDS011;11794;49.730;10.088;2022-08-19T00:38:12;17.37;;;7.73;;
23250;SDS011;11794;49.730;10.088;2022-08-19T00:40:37;16.45;;;6.53;;
23250;SDS011;11794;49.730;10.088;2022-08-19T00:43:07;20.70;;;7.97;;
23250;SDS011;11794;49.730;10.088;2022-08-19T00:45:34;16.27;;;7.17;;
23250;SDS011;11794;49.730;10.088;2022-08-19T00:48:01;19.10;;;7.43;;
23250;SDS011;11794;49.730;10.088;2022-08-19T00:50:31;17.85;;;7.63;;
23250;SDS011;11794;49.730;10.088;2022-08-19T00:52:58;15.75;;;7.10;;
23250;SDS011;11794;49.730;10.088;2022-08-19T00:55:25;17.13;;;7.20;;
23250;SDS011;11794;49.730;10.088;2022-08-19T00:57:58;17.60;;;7.20;;
23250;SDS011;11794;49.730;10.088;2022-08-19T01:00:30;18.55;;;7.35;;
23250;SDS011;11794;49.730;10.088;2022-08-19T01:03:01;18.45;;;7.80;;
23250;SDS011;11794;49.730;10.088;2022-08-19T01:05:28;17.25;;;7.57;;
23250;SDS011;11794;49.730;10.088;2022-08-19T01:07:54;19.13;;;7.85;;
23250;SDS011;11794;49.730;10.088;2022-08-19T01:10:25;18.23;;;8.20;;
23250;SDS011;11794;49.730;10.088;2022-08-19T01:12:54;19.53;;;8.17;;
23250;SDS011;11794;49.730;10.088;2022-08-19T01:15:25;18.52;;;8.15;;
23250;SDS011;11794;49.730;10.088;2022-08-19T01:17:54;18.60;;;8.30;;
23250;SDS011;11794;49.730;10.088;2022-08-19T01:20:21;19.02;;;8.35;;
23250;SDS011;11794;49.730;10.088;2022-08-19T01:22:52;20.85;;;8.18;;
23250;SDS011;11794;49.730;10.088;2022-08-19T01:25:21;22.38;;;8.68;;
23250;SDS011;11794;49.730;10.088;2022-08-19T01:27:51;17.17;;;8.02;;
23250;SDS011;11794;49.730;10.088;2022-08-19T01:30:28;18.83;;;8.13;;
23250;SDS011;11794;49.730;10.088;2022-08-19T01:32:57;20.00;;;7.47;;
23250;SDS011;11794;49.730;10.088;2022-08-19T01:35:25;19.10;;;8.17;;
23250;SDS011;11794;49.730;10.088;2022-08-19T01:37:55;20.30;;;8.30;;
23250;SDS011;11794;49.730;10.088;2022-08-19T01:40:24;17.98;;;7.70;;
23250;SDS011;11794;49.730;10.088;2022-08-19T01:42:52;18.75;;;8.70;;
23250;SDS011;11794;49.730;10.088;2022-08-19T01:45:19;20.20;;;8.38;;
23250;SDS011;11794;49.730;10.088;2022-08-19T01:47:46;17.65;;;7.90;;
23250;SDS011;11794;49.730;10.088;2022-08-19T01:50:11;19.43;;;8.47;;
23250;SDS011;11794;49.730;10.088;2022-08-19T01:52:39;18.50;;;6.93;;
23250;SDS011;11794;49.730;10.088;2022-08-19T01:55:07;16.40;;;7.22;;
23250;SDS011;11794;49.730;10.088;2022-08-19T01:57:35;19.15;;;7.43;;
23250;SDS011;11794;49.730;10.088;2022-08-19T02:00:04;17.05;;;6.82;;
23250;SDS011;11794;49.730;10.088;2022-08-19T02:02:32;15.40;;;6.80;;
23250;SDS011;11794;49.730;10.088;2022-08-19T02:04:58;16.73;;;7.55;;
23250;SDS011;11794;49.730;10.088;2022-08-19T02:07:24;17.87;;;7.93;;
23250;SDS011;11794;49.730;10.088;2022-08-19T02:09:49;17.98;;;7.45;;
23250;SDS011;11794;49.730;10.088;2022-08-19T02:12:15;17.33;;;7.57;;
23250;SDS011;11794;49.730;10.088;2022-08-19T02:14:41;19.15;;;8.20;;
23250;SDS011;11794;49.730;10.088;2022-08-19T02:17:07;16.48;;;7.38;;
23250;SDS011;11794;49.730;10.088;2022-08-19T02:19:33;15.82;;;7.15;;
23250;SDS011;11794;49.730;10.088;2022-08-19T02:21:59;20.03;;;7.20;;
23250;SDS011;11794;49.730;10.088;2022-08-19T02:24:25;17.65;;;7.28;;
23250;SDS011;11794;49.730;10.088;2022-08-19T02:26:51;17.70;;;7.35;;
23250;SDS011;11794;49.730;10.088;2022-08-19T02:29:18;18.83;;;7.15;;
23250;SDS011;11794;49.730;10.088;2022-08-19T02:31:44;19.73;;;7.27;;
23250;SDS011;11794;49.730;10.088;2022-08-19T02:34:09;17.83;;;7.88;;
23250;SDS011;11794;49.730;10.088;2022-08-19T02:36:35;19.13;;;9.03;;
23250;SDS011;11794;49.730;10.088;2022-08-19T02:39:00;16.57;;;7.37;;
23250;SDS011;11794;49.730;10.088;2022-08-19T02:41:28;16.10;;;7.70;;
23250;SDS011;11794;49.730;10.088;2022-08-19T02:43:56;16.83;;;7.07;;
23250;SDS011;11794;49.730;10.088;2022-08-19T02:46:24;17.38;;;7.05;;
23250;SDS011;11794;49.730;10.088;2022-08-19T02:48:53;17.05;;;7.05;;
23250;SDS011;11794;49.730;10.088;2022-08-19T02:51:22;16.75;;;7.95;;
23250;SDS011;11794;49.730;10.088;2022-08-19T02:53:55;18.77;;;8.15;;
23250;SDS011;11794;49.730;10.088;2022-08-19T02:56:21;20.27;;;7.57;;
23250;SDS011;11794;49.730;10.088;2022-08-19T02:58:49;18.73;;;7.63;;
23250;SDS011;11794;49.730;10.088;2022-08-19T03:01:27;17.15;;;7.45;;
23250;SDS011;11794;49.730;10.088;2022-08-19T03:03:56;16.20;;;7.65;;
23250;SDS011;11794;49.730;10.088;2022-08-19T03:06:23;15.53;;;7.03;;
23250;SDS011;11794;49.730;10.088;2022-08-19T03:08:49;14.53;;;7.00;;
23250;SDS011;11794;49.730;10.088;2022-08-19T03:11:20;18.00;;;8.10;;
23250;SDS011;11794;49.730;10.088;2022-08-19T03:13:54;17.70;;;7.40;;
23250;SDS011;11794;49.730;10.088;2022-08-19T03:16:21;15.00;;;6.90;;
23250;SDS011;11794;49.730;10.088;2022-08-19T03:18:48;17.33;;;7.23;;
23250;SDS011;11794;49.730;10.088;2022-08-19T03:21:16;17.80;;;6.97;;
23250;SDS011;11794;49.730;10.088;2022-08-19T03:23:43;16.88;;;6.78;;
23250;SDS011;11794;49.730;10.088;2022-08-19T03:26:09;21.30;;;7.40;;
23250;SDS011;11794;49.730;10.088;2022-08-19T03:28:34;17.17;;;7.63;;
23250;SDS011;11794;49.730;10.088;2022-08-19T03:31:06;16.40;;;6.60;;
23250;SDS011;11794;49.730;10.088;2022-08-19T03:33:36;17.80;;;7.35;;
23250;SDS011;11794;49.730;10.088;2022-08-19T03:36:04;17.95;;;7.55;;
23250;SDS011;11794;49.730;10.088;2022-08-19T03:38:33;16.65;;;7.60;;
23250;SDS011;11794;49.730;10.088;2022-08-19T03:41:04;17.47;;;7.20;;
23250;SDS011;11794;49.730;10.088;2022-08-19T03:43:33;19.13;;;7.47;;
23250;SDS011;11794;49.730;10.088;2022-08-19T03:46:04;16.10;;;6.85;;
23250;SDS011;11794;49.730;10.088;2022-08-19T03:48:41;14.95;;;7.03;;
23250;SDS011;11794;49.730;10.088;2022-08-19T03:51:14;18.45;;;7.40;;
23250;SDS011;11794;49.730;10.088;2022-08-19T03:53:42;17.08;;;6.82;;
23250;SDS011;11794;49.730;10.088;2022-08-19T03:56:08;17.03;;;7.73;;
23250;SDS011;11794;49.730;10.088;2022-08-19T03:58:35;18.45;;;7.70;;
23250;SDS011;11794;49.730;10.088;2022-08-19T04:01:02;18.73;;;8.00;;
23250;SDS011;11794;49.730;10.088;2022-08-19T04:03:36;17.70;;;7.53;;
23250;SDS011;11794;49.730;10.088;2022-08-19T04:06:12;18.60;;;7.45;;
23250;SDS011;11794;49.730;10.088;2022-08-19T04:08:43;17.67;;;7.22;;
23250;SDS011;11794;49.730;10.088;2022-08-19T04:11:11;17.53;;;7.23;;
23250;SDS011;11794;49.730;10.088;2022-08-19T04:13:38;18.17;;;6.70;;
23250;SDS011;11794;49.730;10.088;2022-08-19T04:16:04;18.08;;;6.70;;
23250;SDS011;11794;49.730;10.088;2022-08-19T04:18:31;17.10;;;7.13;;
23250;SDS011;11794;49.730;10.088;2022-08-19T04:21:00;18.08;;;7.72;;
23250;SDS011;11794;49.730;10.088;2022-08-19T04:23:26;16.97;;;7.33;;
23250;SDS011;11794;49.730;10.088;2022-08-19T04:25:53;17.55;;;6.80;;
23250;SDS011;11794;49.730;10.088;2022-08-19T04:28:19;17.27;;;7.35;;
23250;SDS011;11794;49.730;10.088;2022-08-19T04:30:47;16.70;;;7.30;;
23250;SDS011;11794;49.730;10.088;2022-08-19T04:33:15;15.35;;;6.72;;
23250;SDS011;11794;49.730;10.088;2022-08-19T04:35:43;17.38;;;7.40;;
23250;SDS011;11794;49.730;10.088;2022-08-19T04:38:11;18.58;;;7.00;;
23250;SDS011;11794;49.730;10.088;2022-08-19T04:40:41;18.35;;;7.70;;
23250;SDS011;11794;49.730;10.088;2022-08-19T04:43:28;16.52;;;7.13;;
23250;SDS011;11794;49.730;10.088;2022-08-19T04:45:53;17.70;;;6.90;;
23250;SDS011;11794;49.730;10.088;2022-08-19T04:48:19;14.93;;;6.55;;
23250;SDS011;11794;49.730;10.088;2022-08-19T04:50:50;16.60;;;6.93;;
23250;SDS011;11794;49.730;10.088;2022-08-19T04:53:22;16.77;;;7.05;;
23250;SDS011;11794;49.730;10.088;2022-08-19T04:55:58;14.85;;;6.80;;
23250;SDS011;11794;49.730;10.088;2022-08-19T04:58:27;16.98;;;6.63;;
23250;SDS011;11794;49.730;10.088;2022-08-19T05:00:53;15.75;;;6.78;;
23250;SDS011;11794;49.730;10.088;2022-08-19T05:03:19;18.80;;;7.03;;
23250;SDS011;11794;49.730;10.088;2022-08-19T05:05:46;15.25;;;7.22;;
23250;SDS011;11794;49.730;10.088;2022-08-19T05:08:14;16.30;;;7.30;;
23250;SDS011;11794;49.730;10.088;2022-08-19T05:10:48;15.70;;;7.00;;
23250;SDS011;11794;49.730;10.088;2022-08-19T05:13:17;16.63;;;7.13;;
23250;SDS011;11794;49.730;10.088;2022-08-19T05:15:44;16.97;;;7.10;;
23250;SDS011;11794;49.730;10.088;2022-08-19T05:18:17;16.55;;;7.22;;
23250;SDS011;11794;49.730;10.088;2022-08-19T05:21:05;14.45;;;6.95;;
23250;SDS011;11794;49.730;10.088;2022-08-19T05:23:56;14.90;;;6.57;;
23250;SDS011;11794;49.730;10.088;2022-08-19T05:26:22;17.15;;;7.05;;
23250;SDS011;11794;49.730;10.088;2022-08-19T05:28:51;16.15;;;6.60;;
23250;SDS011;11794;49.730;10.088;2022-08-19T05:31:17;16.35;;;6.50;;
23250;SDS011;11794;49.730;10.088;2022-08-19T05:33:43;14.35;;;6.70;;
23250;SDS011;11794;49.730;10.088;2022-08-19T05:36:08;14.10;;;6.37;;
23250;SDS011;11794;49.730;10.088;2022-08-19T05:38:34;16.63;;;7.00;;
23250;SDS011;11794;49.730;10.088;2022-08-19T05:41:01;16.30;;;6.83;;
23250;SDS011;11794;49.730;10.088;2022-08-19T05:43:35;15.82;;;6.75;;
23250;SDS011;11794;49.730;10.088;2022-08-19T05:46:01;14.48;;;6.57;;
23250;SDS011;11794;49.730;10.088;2022-08-19T05:48:26;15.02;;;6.07;;
23250;SDS011;11794;49.730;10.088;2022-08-19T05:50:52;14.53;;;6.40;;
23250;SDS011;11794;49.730;10.088;2022-08-19T05:53:18;13.20;;;6.37;;
23250;SDS011;11794;49.730;10.088;2022-08-19T05:55:44;15.73;;;6.38;;
23250;SDS011;11794;49.730;10.088;2022-08-19T05:58:09;13.57;;;5.73;;
23250;SDS011;11794;49.730;10.088;2022-08-19T06:00:36;15.13;;;6.23;;
23250;SDS011;11794;49.730;10.088;2022-08-19T06:03:02;15.35;;;6.30;;
23250;SDS011;11794;49.730;10.088;2022-08-19T06:05:29;15.63;;;6.43;;
23250;SDS011;11794;49.730;10.088;2022-08-19T06:07:55;13.75;;;6.15;;
23250;SDS011;11794;49.730;10.088;2022-08-19T06:10:22;14.18;;;6.32;;
23250;SDS011;11794;49.730;10.088;2022-08-19T06:12:48;14.05;;;6.60;;
23250;SDS011;11794;49.730;10.088;2022-08-19T06:15:14;12.67;;;5.53;;
23250;SDS011;11794;49.730;10.088;2022-08-19T06:17:40;14.10;;;5.88;;
23250;SDS011;11794;49.730;10.088;2022-08-19T06:20:07;13.57;;;6.18;;
23250;SDS011;11794;49.730;10.088;2022-08-19T06:22:39;12.02;;;5.80;;
23250;SDS011;11794;49.730;10.088;2022-08-19T06:25:06;16.20;;;6.25;;
23250;SDS011;11794;49.730;10.088;2022-08-19T06:27:31;13.48;;;6.60;;
23250;SDS011;11794;49.730;10.088;2022-08-19T06:29:58;14.70;;;5.93;;
23250;SDS011;11794;49.730;10.088;2022-08-19T06:32:24;12.83;;;5.70;;
23250;SDS011;11794;49.730;10.088;2022-08-19T06:34:49;12.73;;;5.63;;
23250;SDS011;11794;49.730;10.088;2022-08-19T06:37:15;14.68;;;6.45;;
23250;SDS011;11794;49.730;10.088;2022-08-19T06:39:42;13.15;;;5.68;;
23250;SDS011;11794;49.730;10.088;2022-08-19T06:42:09;13.13;;;6.10;;
23250;SDS011;11794;49.730;10.088;2022-08-19T06:44:38;14.37;;;6.10;;
23250;SDS011;11794;49.730;10.088;2022-08-19T06:47:07;13.77;;;6.40;;
23250;SDS011;11794;49.730;10.088;2022-08-19T06:49:34;15.10;;;6.30;;
23250;SDS011;11794;49.730;10.088;2022-08-19T06:52:00;12.27;;;5.45;;
23250;SDS011;11794;49.730;10.088;2022-08-19T06:54:26;13.65;;;6.28;;
23250;SDS011;11794;49.730;10.088;2022-08-19T06:56:54;14.82;;;5.75;;
23250;SDS011;11794;49.730;10.088;2022-08-19T06:59:22;13.27;;;6.28;;
23250;SDS011;11794;49.730;10.088;2022-08-19T07:01:52;11.85;;;5.35;;
23250;SDS011;11794;49.730;10.088;2022-08-19T07:04:21;13.82;;;5.95;;
23250;SDS011;11794;49.730;10.088;2022-08-19T07:06:48;12.50;;;5.47;;
23250;SDS011;11794;49.730;10.088;2022-08-19T07:09:15;14.77;;;5.53;;
23250;SDS011;11794;49.730;10.088;2022-08-19T07:11:44;11.73;;;5.50;;
23250;SDS011;11794;49.730;10.088;2022-08-19T07:14:10;15.00;;;6.30;;
23250;SDS011;11794;49.730;10.088;2022-08-19T07:16:36;17.92;;;6.32;;
23250;SDS011;11794;49.730;10.088;2022-08-19T07:19:01;12.97;;;5.93;;
23250;SDS011;11794;49.730;10.088;2022-08-19T07:21:27;15.13;;;6.27;;
23250;SDS011;11794;49.730;10.088;2022-08-19T07:23:53;13.13;;;5.60;;
23250;SDS011;11794;49.730;10.088;2022-08-19T07:26:22;12.82;;;5.90;;
23250;SDS011;11794;49.730;10.088;2022-08-19T07:28:49;12.18;;;5.60;;
23250;SDS011;11794;49.730;10.088;2022-08-19T07:31:17;11.02;;;5.10;;
23250;SDS011;11794;49.730;10.088;2022-08-19T07:33:45;13.15;;;5.50;;
23250;SDS011;11794;49.730;10.088;2022-08-19T07:36:13;13.35;;;5.80;;
23250;SDS011;11794;49.730;10.088;2022-08-19T07:38:42;14.73;;;5.80;;
23250;SDS011;11794;49.730;10.088;2022-08-19T07:41:15;15.73;;;6.07;;
23250;SDS011;11794;49.730;10.088;2022-08-19T07:43:42;13.00;;;5.40;;
23250;SDS011;11794;49.730;10.088;2022-08-19T07:46:09;12.43;;;5.90;;
23250;SDS011;11794;49.730;10.088;2022-08-19T07:48:35;13.55;;;5.68;;
23250;SDS011;11794;49.730;10.088;2022-08-19T07:51:02;12.50;;;5.82;;
23250;SDS011;11794;49.730;10.088;2022-08-19T07:53:31;12.82;;;5.70;;
23250;SDS011;11794;49.730;10.088;2022-08-19T07:55:58;13.23;;;6.13;;
23250;SDS011;11794;49.730;10.088;2022-08-19T07:58:27;11.83;;;5.23;;
23250;SDS011;11794;49.730;10.088;2022-08-19T08:00:53;12.48;;;5.72;;
23250;SDS011;11794;49.730;10.088;2022-08-19T08:03:20;15.70;;;6.20;;
23250;SDS011;11794;49.730;10.088;2022-08-19T08:06:06;13.23;;;6.20;;
23250;SDS011;11794;49.730;10.088;2022-08-19T08:08:51;13.95;;;6.63;;
23250;SDS011;11794;49.730;10.088;2022-08-19T08:11:35;13.63;;;6.15;;
23250;SDS011;11794;49.730;10.088;2022-08-19T08:14:01;11.07;;;5.73;;
23250;SDS011;11794;49.730;10.088;2022-08-19T08:16:27;13.85;;;6.00;;
23250;SDS011;11794;49.730;10.088;2022-08-19T08:18:56;12.43;;;5.78;;
23250;SDS011;11794;49.730;10.088;2022-08-19T08:21:22;13.38;;;6.25;;
23250;SDS011;11794;49.730;10.088;2022-08-19T08:23:47;17.27;;;5.87;;
23250;SDS011;11794;49.730;10.088;2022-08-19T08:26:13;14.13;;;6.40;;
23250;SDS011;11794;49.730;10.088;2022-08-19T08:28:39;11.13;;;5.23;;
23250;SDS011;11794;49.730;10.088;2022-08-19T08:31:05;12.80;;;5.82;;
23250;SDS011;11794;49.730;10.088;2022-08-19T08:33:30;10.80;;;5.37;;
23250;SDS011;11794;49.730;10.088;2022-08-19T08:35:56;14.37;;;6.23;;
23250;SDS011;11794;49.730;10.088;2022-08-19T08:38:21;10.95;;;5.68;;
23250;SDS011;11794;49.730;10.088;2022-08-19T08:40:48;14.53;;;6.13;;
23250;SDS011;11794;49.730;10.088;2022-08-19T08:43:29;13.20;;;5.82;;
23250;SDS011;11794;49.730;10.088;2022-08-19T08:48:37;11.65;;;5.68;;
23250;SDS011;11794;49.730;10.088;2022-08-19T08:51:25;12.57;;;5.53;;
23250;SDS011;11794;49.730;10.088;2022-08-19T08:54:05;11.35;;;5.53;;
23250;SDS011;11794;49.730;10.088;2022-08-19T08:56:33;12.05;;;5.63;;
23250;SDS011;11794;49.730;10.088;2022-08-19T08:59:06;12.47;;;5.87;;
23250;SDS011;11794;49.730;10.088;2022-08-19T09:01:37;13.50;;;5.50;;
23250;SDS011;11794;49.730;10.088;2022-08-19T09:04:04;13.13;;;6.28;;
23250;SDS011;11794;49.730;10.088;2022-08-19T09:06:36;13.48;;;6.13;;
23250;SDS011;11794;49.730;10.088;2022-08-19T09:09:17;16.92;;;5.75;;
23250;SDS011;11794;49.730;10.088;2022-08-19T09:11:55;12.93;;;6.05;;
23250;SDS011;11794;49.730;10.088;2022-08-19T09:17:03;12.27;;;6.05;;
23250;SDS011;11794;49.730;10.088;2022-08-19T09:19:32;14.13;;;6.53;;
23250;SDS011;11794;49.730;10.088;2022-08-19T09:21:59;14.50;;;6.00;;
23250;SDS011;11794;49.730;10.088;2022-08-19T09:24:25;13.07;;;6.30;;
23250;SDS011;11794;49.730;10.088;2022-08-19T09:26:51;14.98;;;6.13;;
23250;SDS011;11794;49.730;10.088;2022-08-19T09:29:17;12.63;;;6.20;;
23250;SDS011;11794;49.730;10.088;2022-08-19T09:31:42;13.70;;;5.90;;
23250;SDS011;11794;49.730;10.088;2022-08-19T09:34:08;15.47;;;6.20;;
23250;SDS011;11794;49.730;10.088;2022-08-19T09:36:33;14.00;;;6.30;;
23250;SDS011;11794;49.730;10.088;2022-08-19T09:39:01;13.73;;;6.33;;
23250;SDS011;11794;49.730;10.088;2022-08-19T09:41:31;12.93;;;5.77;;
23250;SDS011;11794;49.730;10.088;2022-08-19T09:43:57;13.50;;;6.28;;
23250;SDS011;11794;49.730;10.088;2022-08-19T09:46:24;12.82;;;6.05;;
23250;SDS011;11794;49.730;10.088;2022-08-19T09:48:52;13.48;;;6.65;;
23250;SDS011;11794;49.730;10.088;2022-08-19T09:51:24;12.63;;;6.07;;
23250;SDS011;11794;49.730;10.088;2022-08-19T09:53:53;12.80;;;5.80;;
23250;SDS011;11794;49.730;10.088;2022-08-19T09:56:19;14.60;;;6.07;;
23250;SDS011;11794;49.730;10.088;2022-08-19T09:58:46;12.30;;;5.93;;
23250;SDS011;11794;49.730;10.088;2022-08-19T10:01:17;11.68;;;6.30;;
23250;SDS011;11794;49.730;10.088;2022-08-19T10:03:46;11.83;;;5.80;;
23250;SDS011;11794;49.730;10.088;2022-08-19T10:06:14;13.73;;;6.47;;
23250;SDS011;11794;49.730;10.088;2022-08-19T10:08:39;14.00;;;6.07;;
23250;SDS011;11794;49.730;10.088;2022-08-19T10:11:05;14.20;;;6.33;;
23250;SDS011;11794;49.730;10.088;2022-08-19T10:13:31;15.57;;;6.45;;
23250;SDS011;11794;49.730;10.088;2022-08-19T10:16:03;12.30;;;5.97;;
23250;SDS011;11794;49.730;10.088;2022-08-19T10:18:34;14.30;;;6.10;;
23250;SDS011;11794;49.730;10.088;2022-08-19T10:21:06;13.25;;;6.10;;
23250;SDS011;11794;49.730;10.088;2022-08-19T10:23:33;11.52;;;5.65;;
23250;SDS011;11794;49.730;10.088;2022-08-19T10:26:04;13.02;;;6.57;;
23250;SDS011;11794;49.730;10.088;2022-08-19T10:28:30;15.50;;;6.57;;
23250;SDS011;11794;49.730;10.088;2022-08-19T10:30:57;13.05;;;6.43;;
23250;SDS011;11794;49.730;10.088;2022-08-19T10:33:23;13.60;;;6.43;;
23250;SDS011;11794;49.730;10.088;2022-08-19T10:35:58;13.60;;;6.97;;
23250;SDS011;11794;49.730;10.088;2022-08-19T10:38:32;12.18;;;6.05;;
23250;SDS011;11794;49.730;10.088;2022-08-19T10:41:05;14.87;;;6.60;;
23250;SDS011;11794;49.730;10.088;2022-08-19T10:43:52;13.27;;;6.00;;
23250;SDS011;11794;49.730;10.088;2022-08-19T10:46:23;12.32;;;6.28;;
23250;SDS011;11794;49.730;10.088;2022-08-19T10:48:50;12.35;;;6.10;;
23250;SDS011;11794;49.730;10.088;2022-08-19T10:51:16;13.32;;;6.13;;
23250;SDS011;11794;49.730;10.088;2022-08-19T10:54:01;13.00;;;6.43;;
23250;SDS011;11794;49.730;10.088;2022-08-19T10:56:27;12.38;;;6.05;;
23250;SDS011;11794;49.730;10.088;2022-08-19T10:59:13;10.50;;;5.65;;
23250;SDS011;11794;49.730;10.088;2022-08-19T11:01:40;13.30;;;6.07;;
23250;SDS011;11794;49.730;10.088;2022-08-19T11:04:07;12.30;;;5.88;;
23250;SDS011;11794;49.730;10.088;2022-08-19T11:06:35;11.47;;;5.63;;
23250;SDS011;11794;49.730;10.088;2022-08-19T11:09:02;10.77;;;5.80;;
23250;SDS011;11794;49.730;10.088;2022-08-19T11:11:27;11.35;;;5.57;;
23250;SDS011;11794;49.730;10.088;2022-08-19T11:13:53;12.20;;;6.00;;
23250;SDS011;11794;49.730;10.088;2022-08-19T11:16:20;12.65;;;6.35;;
23250;SDS011;11794;49.730;10.088;2022-08-19T11:18:49;13.67;;;5.87;;
23250;SDS011;11794;49.730;10.088;2022-08-19T11:21:30;12.47;;;5.43;;
23250;SDS011;11794;49.730;10.088;2022-08-19T11:24:02;10.45;;;5.45;;
23250;SDS011;11794;49.730;10.088;2022-08-19T11:26:30;11.80;;;5.57;;
23250;SDS011;11794;49.730;10.088;2022-08-19T11:28:58;13.63;;;6.10;;
23250;SDS011;11794;49.730;10.088;2022-08-19T11:31:25;11.98;;;5.75;;
23250;SDS011;11794;49.730;10.088;2022-08-19T11:33:53;9.63;;;4.75;;
23250;SDS011;11794;49.730;10.088;2022-08-19T11:36:20;11.45;;;4.93;;
23250;SDS011;11794;49.730;10.088;2022-08-19T11:38:49;11.95;;;5.65;;
23250;SDS011;11794;49.730;10.088;2022-08-19T11:41:16;11.38;;;6.20;;
23250;SDS011;11794;49.730;10.088;2022-08-19T11:43:43;11.03;;;5.37;;
23250;SDS011;11794;49.730;10.088;2022-08-19T11:46:09;9.07;;;4.40;;
23250;SDS011;11794;49.730;10.088;2022-08-19T11:48:37;9.27;;;4.35;;
23250;SDS011;11794;49.730;10.088;2022-08-19T11:51:04;9.20;;;4.00;;
23250;SDS011;11794;49.730;10.088;2022-08-19T11:53:35;7.85;;;4.05;;
23250;SDS011;11794;49.730;10.088;2022-08-19T11:56:01;7.72;;;3.83;;
23250;SDS011;11794;49.730;10.088;2022-08-19T11:58:27;8.73;;;3.67;;
23250;SDS011;11794;49.730;10.088;2022-08-19T12:00:54;7.80;;;3.57;;
23250;SDS011;11794;49.730;10.088;2022-08-19T12:03:20;8.57;;;3.70;;
23250;SDS011;11794;49.730;10.088;2022-08-19T12:05:45;7.15;;;3.65;;
23250;SDS011;11794;49.730;10.088;2022-08-19T12:08:11;8.23;;;3.22;;
23250;SDS011;11794;49.730;10.088;2022-08-19T12:10:38;6.50;;;2.83;;
23250;SDS011;11794;49.730;10.088;2022-08-19T12:13:04;7.30;;;3.20;;
23250;SDS011;11794;49.730;10.088;2022-08-19T12:15:34;7.73;;;3.20;;
23250;SDS011;11794;49.730;10.088;2022-08-19T12:18:06;7.18;;;3.10;;
23250;SDS011;11794;49.730;10.088;2022-08-19T12:20:36;6.50;;;2.80;;
23250;SDS011;11794;49.730;10.088;2022-08-19T12:23:04;6.18;;;2.10;;
23250;SDS011;11794;49.730;10.088;2022-08-19T12:25:30;5.75;;;2.53;;
23250;SDS011;11794;49.730;10.088;2022-08-19T12:27:56;7.13;;;2.22;;
23250;SDS011;11794;49.730;10.088;2022-08-19T12:30:22;7.07;;;2.23;;
23250;SDS011;11794;49.730;10.088;2022-08-19T12:32:48;5.60;;;2.30;;
23250;SDS011;11794;49.730;10.088;2022-08-19T12:35:15;6.57;;;2.40;;
23250;SDS011;11794;49.730;10.088;2022-08-19T12:37:41;5.83;;;2.30;;
23250;SDS011;11794;49.730;10.088;2022-08-19T12:40:09;5.43;;;2.10;;
23250;SDS011;11794;49.730;10.088;2022-08-19T12:42:36;6.72;;;2.10;;
23250;SDS011;11794;49.730;10.088;2022-08-19T12:45:07;7.07;;;2.13;;
23250;SDS011;11794;49.730;10.088;2022-08-19T12:47:34;6.82;;;2.45;;
23250;SDS011;11794;49.730;10.088;2022-08-19T12:49:59;6.57;;;2.30;;
23250;SDS011;11794;49.730;10.088;2022-08-19T12:52:25;5.45;;;2.13;;
23250;SDS011;11794;49.730;10.088;2022-08-19T12:54:52;6.45;;;2.58;;
23250;SDS011;11794;49.730;10.088;2022-08-19T12:57:19;8.68;;;3.30;;
23250;SDS011;11794;49.730;10.088;2022-08-19T12:59:45;9.10;;;3.63;;
23250;SDS011;11794;49.730;10.088;2022-08-19T13:02:11;8.73;;;4.20;;
23250;SDS011;11794;49.730;10.088;2022-08-19T13:04:36;9.63;;;4.38;;
23250;SDS011;11794;49.730;10.088;2022-08-19T13:07:05;10.07;;;5.17;;
23250;SDS011;11794;49.730;10.088;2022-08-19T13:09:31;11.07;;;5.03;;
23250;SDS011;11794;49.730;10.088;2022-08-19T13:11:57;8.82;;;5.10;;
23250;SDS011;11794;49.730;10.088;2022-08-19T13:14:22;11.43;;;5.47;;
23250;SDS011;11794;49.730;10.088;2022-08-19T13:16:48;13.90;;;5.57;;
23250;SDS011;11794;49.730;10.088;2022-08-19T13:19:13;12.97;;;5.63;;
23250;SDS011;11794;49.730;10.088;2022-08-19T13:21:39;11.30;;;5.47;;
23250;SDS011;11794;49.730;10.088;2022-08-19T13:24:04;13.52;;;5.50;;
23250;SDS011;11794;49.730;10.088;2022-08-19T13:26:31;11.88;;;6.18;;
23250;SDS011;11794;49.730;10.088;2022-08-19T13:28:56;15.87;;;6.40;;
23250;SDS011;11794;49.730;10.088;2022-08-19T13:31:41;8.18;;;4.30;;
23250;SDS011;11794;49.730;10.088;2022-08-19T13:34:28;9.50;;;4.40;;
23250;SDS011;11794;49.730;10.088;2022-08-19T13:36:57;10.63;;;4.60;;
23250;SDS011;11794;49.730;10.088;2022-08-19T13:39:23;10.23;;;4.32;;
23250;SDS011;11794;49.730;10.088;2022-08-19T13:41:49;6.67;;;2.90;;
23250;SDS011;11794;49.730;10.088;2022-08-19T13:44:16;7.03;;;2.83;;
23250;SDS011;11794;49.730;10.088;2022-08-19T13:46:45;6.97;;;2.78;;
23250;SDS011;11794;49.730;10.088;2022-08-19T13:49:13;9.98;;;5.15;;
23250;SDS011;11794;49.730;10.088;2022-08-19T13:51:39;10.27;;;4.72;;
23250;SDS011;11794;49.730;10.088;2022-08-19T13:54:06;14.40;;;6.33;;
23250;SDS011;11794;49.730;10.088;2022-08-19T13:56:33;12.90;;;5.80;;
23250;SDS011;11794;49.730;10.088;2022-08-19T13:59:00;13.25;;;6.28;;
23250;SDS011;11794;49.730;10.088;2022-08-19T14:01:25;12.85;;;6.30;;
23250;SDS011;11794;49.730;10.088;2022-08-19T14:03:51;11.18;;;5.88;;
23250;SDS011;11794;49.730;10.088;2022-08-19T14:06:17;11.70;;;5.80;;
23250;SDS011;11794;49.730;10.088;2022-08-19T14:08:43;11.07;;;5.53;;
23250;SDS011;11794;49.730;10.088;2022-08-19T14:11:09;9.77;;;4.70;;
23250;SDS011;11794;49.730;10.088;2022-08-19T14:13:35;10.60;;;5.10;;
23250;SDS011;11794;49.730;10.088;2022-08-19T14:16:05;11.60;;;5.60;;
23250;SDS011;11794;49.730;10.088;2022-08-19T14:18:38;11.50;;;5.77;;
23250;SDS011;11794;49.730;10.088;2022-08-19T14:21:04;13.77;;;5.70;;
23250;SDS011;11794;49.730;10.088;2022-08-19T14:23:33;13.20;;;5.43;;
23250;SDS011;11794;49.730;10.088;2022-08-19T14:26:07;11.32;;;5.20;;
23250;SDS011;11794;49.730;10.088;2022-08-19T14:28:34;11.23;;;5.45;;
23250;SDS011;11794;49.730;10.088;2022-08-19T14:30:59;12.73;;;5.67;;
23250;SDS011;11794;49.730;10.088;2022-08-19T14:33:25;11.77;;;5.68;;
23250;SDS011;11794;49.730;10.088;2022-08-19T14:35:50;9.93;;;5.00;;